Shalersville, Ohio
Current Conditions -  °F | °C
As of 4:00 AM on Sunday 23 Nov 2014 (Local Time) from KPOV Reporting Station
Drizzle Drizzle  
Wind Chill: 47°   Ceiling: 4100
Heat Index: 47°   Visibility: 10mi
Dew Point: 31°   Wind: 3mph
Humidity: 55%   Direction: 220°SW
Pressure: 30.04"   Gusts: NA
Location:  41.2966°N, 81.2269°W
Report Text: KPOV 230900Z AUTO 22003KT 10SM -DZ OVC041 08/00 A3004 RMK AO2 T00821003
Loading
Personal Weather Stations






























Interactive Weather Map New forecast layout! Learn more

10-Day Weather Forecast

Advertisements
Track Severe Weather on mobile